sensor_id;sensor_type;location;lat;lon;timestamp;temperature;humidity
10143;DHT22;5112;54.088;13.446;2023-05-10T00:00:10;13.20;94.30
10143;DHT22;5112;54.088;13.446;2023-05-10T00:10:12;13.10;94.70
10143;DHT22;5112;54.088;13.446;2023-05-10T00:20:15;13.00;95.20
10143;DHT22;5112;54.088;13.446;2023-05-10T00:30:17;13.00;95.50
10143;DHT22;5112;54.088;13.446;2023-05-10T00:40:20;12.90;96.10
10143;DHT22;5112;54.088;13.446;2023-05-10T00:50:22;12.80;96.10
10143;DHT22;5112;54.088;13.446;2023-05-10T01:00:26;12.60;96.80
10143;DHT22;5112;54.088;13.446;2023-05-10T01:10:27;12.70;97.10
10143;DHT22;5112;54.088;13.446;2023-05-10T01:20:37;12.50;97.70
10143;DHT22;5112;54.088;13.446;2023-05-10T01:31:08;12.50;98.00
10143;DHT22;5112;54.088;13.446;2023-05-10T01:41:22;12.50;98.60
10143;DHT22;5112;54.088;13.446;2023-05-10T01:51:31;12.40;99.30
10143;DHT22;5112;54.088;13.446;2023-05-10T02:01:40;12.10;99.90
10143;DHT22;5112;54.088;13.446;2023-05-10T02:11:43;12.00;99.90
10143;DHT22;5112;54.088;13.446;2023-05-10T02:21:47;12.10;99.90
10143;DHT22;5112;54.088;13.446;2023-05-10T02:31:49;11.90;99.90
10143;DHT22;5112;54.088;13.446;2023-05-10T02:41:54;11.90;99.90
10143;DHT22;5112;54.088;13.446;2023-05-10T02:52:00;11.90;99.90
10143;DHT22;5112;54.088;13.446;2023-05-10T03:02:04;11.70;99.90
10143;DHT22;5112;54.088;13.446;2023-05-10T03:12:13;11.70;99.90
10143;DHT22;5112;54.088;13.446;2023-05-10T03:22:34;11.60;99.90
10143;DHT22;5112;54.088;13.446;2023-05-10T03:32:37;11.70;99.90
10143;DHT22;5112;54.088;13.446;2023-05-10T03:42:40;11.60;99.90
10143;DHT22;5112;54.088;13.446;2023-05-10T03:52:42;11.60;99.90
10143;DHT22;5112;54.088;13.446;2023-05-10T04:02:45;11.70;99.90
10143;DHT22;5112;54.088;13.446;2023-05-10T04:12:46;11.70;99.90
10143;DHT22;5112;54.088;13.446;2023-05-10T04:22:49;11.70;99.90
10143;DHT22;5112;54.088;13.446;2023-05-10T04:32:51;12.90;99.90
10143;DHT22;5112;54.088;13.446;2023-05-10T04:42:54;13.40;99.80
10143;DHT22;5112;54.088;13.446;2023-05-10T04:52:56;13.00;99.90
10143;DHT22;5112;54.088;13.446;2023-05-10T05:02:59;12.90;99.90
10143;DHT22;5112;54.088;13.446;2023-05-10T05:13:00;13.00;99.90
10143;DHT22;5112;54.088;13.446;2023-05-10T05:23:03;13.20;99.90
10143;DHT22;5112;54.088;13.446;2023-05-10T05:33:05;13.50;99.90
10143;DHT22;5112;54.088;13.446;2023-05-10T05:43:08;13.50;99.90
10143;DHT22;5112;54.088;13.446;2023-05-10T05:53:10;13.70;99.90
10143;DHT22;5112;54.088;13.446;2023-05-10T06:03:13;14.10;99.90
10143;DHT22;5112;54.088;13.446;2023-05-10T06:13:14;14.30;99.90
10143;DHT22;5112;54.088;13.446;2023-05-10T06:23:18;14.30;99.90
10143;DHT22;5112;54.088;13.446;2023-05-10T06:33:19;14.50;99.90
10143;DHT22;5112;54.088;13.446;2023-05-10T06:43:22;14.70;99.30
10143;DHT22;5112;54.088;13.446;2023-05-10T06:53:25;15.00;99.40
10143;DHT22;5112;54.088;13.446;2023-05-10T07:03:28;15.50;98.10
10143;DHT22;5112;54.088;13.446;2023-05-10T07:13:30;15.50;98.40
10143;DHT22;5112;54.088;13.446;2023-05-10T07:23:33;15.70;97.70
10143;DHT22;5112;54.088;13.446;2023-05-10T07:33:35;15.80;98.10
10143;DHT22;5112;54.088;13.446;2023-05-10T07:43:38;16.00;97.10
10143;DHT22;5112;54.088;13.446;2023-05-10T07:53:40;16.40;96.60
10143;DHT22;5112;54.088;13.446;2023-05-10T08:03:43;16.50;95.50
10143;DHT22;5112;54.088;13.446;2023-05-10T08:13:45;16.80;95.30
10143;DHT22;5112;54.088;13.446;2023-05-10T08:23:48;17.00;94.20
10143;DHT22;5112;54.088;13.446;2023-05-10T08:33:50;17.20;94.10
10143;DHT22;5112;54.088;13.446;2023-05-10T08:43:54;17.70;93.50
10143;DHT22;5112;54.088;13.446;2023-05-10T08:53:56;18.20;92.80
10143;DHT22;5112;54.088;13.446;2023-05-10T09:03:59;18.30;92.70
10143;DHT22;5112;54.088;13.446;2023-05-10T09:14:01;18.50;91.40
10143;DHT22;5112;54.088;13.446;2023-05-10T09:24:06;18.90;91.30
10143;DHT22;5112;54.088;13.446;2023-05-10T09:34:08;19.40;90.70
10143;DHT22;5112;54.088;13.446;2023-05-10T09:44:11;19.40;90.40
10143;DHT22;5112;54.088;13.446;2023-05-10T09:54:14;19.80;89.60
10143;DHT22;5112;54.088;13.446;2023-05-10T10:04:17;20.10;87.70
10143;DHT22;5112;54.088;13.446;2023-05-10T10:14:22;20.50;86.50
10143;DHT22;5112;54.088;13.446;2023-05-10T10:24:25;21.00;84.10
10143;DHT22;5112;54.088;13.446;2023-05-10T10:34:28;20.90;83.40
10143;DHT22;5112;54.088;13.446;2023-05-10T10:44:37;21.40;83.10
10143;DHT22;5112;54.088;13.446;2023-05-10T10:54:39;21.70;79.60
10143;DHT22;5112;54.088;13.446;2023-05-10T11:04:44;21.30;79.30
10143;DHT22;5112;54.088;13.446;2023-05-10T11:14:49;21.70;78.90
10143;DHT22;5112;54.088;13.446;2023-05-10T11:24:57;22.20;75.40
10143;DHT22;5112;54.088;13.446;2023-05-10T11:34:59;21.80;72.60
10143;DHT22;5112;54.088;13.446;2023-05-10T11:45:03;22.30;72.40
10143;DHT22;5112;54.088;13.446;2023-05-10T11:55:05;22.20;71.90
10143;DHT22;5112;54.088;13.446;2023-05-10T12:05:09;22.70;73.20
10143;DHT22;5112;54.088;13.446;2023-05-10T12:15:12;22.50;72.40
10143;DHT22;5112;54.088;13.446;2023-05-10T12:25:15;22.60;72.70
10143;DHT22;5112;54.088;13.446;2023-05-10T12:35:17;22.80;72.10
10143;DHT22;5112;54.088;13.446;2023-05-10T12:45:22;23.10;74.50
10143;DHT22;5112;54.088;13.446;2023-05-10T12:55:24;23.00;71.30
10143;DHT22;5112;54.088;13.446;2023-05-10T13:05:27;23.30;70.40
10143;DHT22;5112;54.088;13.446;2023-05-10T13:15:29;23.30;70.20
10143;DHT22;5112;54.088;13.446;2023-05-10T13:25:32;23.70;68.20
10143;DHT22;5112;54.088;13.446;2023-05-10T13:35:34;23.90;68.70
10143;DHT22;5112;54.088;13.446;2023-05-10T13:45:37;23.60;69.60
10143;DHT22;5112;54.088;13.446;2023-05-10T13:55:39;23.70;68.00
10143;DHT22;5112;54.088;13.446;2023-05-10T14:05:42;23.50;69.20
10143;DHT22;5112;54.088;13.446;2023-05-10T14:15:45;23.80;70.00
10143;DHT22;5112;54.088;13.446;2023-05-10T14:25:48;23.60;69.00
10143;DHT22;5112;54.088;13.446;2023-05-10T14:35:50;23.40;72.60
10143;DHT22;5112;54.088;13.446;2023-05-10T14:45:53;23.50;72.50
10143;DHT22;5112;54.088;13.446;2023-05-10T14:55:54;23.90;72.10
10143;DHT22;5112;54.088;13.446;2023-05-10T15:05:57;23.20;74.10
10143;DHT22;5112;54.088;13.446;2023-05-10T15:15:59;23.30;74.00
10143;DHT22;5112;54.088;13.446;2023-05-10T15:26:02;23.00;73.40
10143;DHT22;5112;54.088;13.446;2023-05-10T15:36:04;23.20;73.60
10143;DHT22;5112;54.088;13.446;2023-05-10T15:46:08;22.90;74.30
10143;DHT22;5112;54.088;13.446;2023-05-10T15:56:09;22.60;71.90
10143;DHT22;5112;54.088;13.446;2023-05-10T16:06:13;22.90;72.20
10143;DHT22;5112;54.088;13.446;2023-05-10T16:16:14;22.60;71.40
10143;DHT22;5112;54.088;13.446;2023-05-10T16:26:17;22.30;72.40
10143;DHT22;5112;54.088;13.446;2023-05-10T16:36:19;22.50;71.60
10143;DHT22;5112;54.088;13.446;2023-05-10T17:05:25;21.90;72.70
10143;DHT22;5112;54.088;13.446;2023-05-10T17:15:27;22.20;73.20
10143;DHT22;5112;54.088;13.446;2023-05-10T17:25:30;22.00;75.00
10143;DHT22;5112;54.088;13.446;2023-05-10T17:49:32;21.40;76.70
10143;DHT22;5112;54.088;13.446;2023-05-10T17:59:34;21.30;77.90
10143;DHT22;5112;54.088;13.446;2023-05-10T18:09:37;21.70;76.80
10143;DHT22;5112;54.088;13.446;2023-05-10T18:19:38;20.80;78.90
10143;DHT22;5112;54.088;13.446;2023-05-10T18:29:41;20.70;80.00
10143;DHT22;5112;54.088;13.446;2023-05-10T18:39:43;20.00;83.10
10143;DHT22;5112;54.088;13.446;2023-05-10T18:49:46;19.60;84.40
10143;DHT22;5112;54.088;13.446;2023-05-10T18:59:48;19.10;86.40
10143;DHT22;5112;54.088;13.446;2023-05-10T19:09:51;18.70;90.80
10143;DHT22;5112;54.088;13.446;2023-05-10T19:19:53;18.10;92.60
10143;DHT22;5112;54.088;13.446;2023-05-10T19:29:56;17.60;94.00
10143;DHT22;5112;54.088;13.446;2023-05-10T19:39:57;17.30;95.80
10143;DHT22;5112;54.088;13.446;2023-05-10T19:50:00;17.40;94.80
10143;DHT22;5112;54.088;13.446;2023-05-10T20:00:02;17.40;95.50
10143;DHT22;5112;54.088;13.446;2023-05-10T20:10:07;17.40;95.70
10143;DHT22;5112;54.088;13.446;2023-05-10T20:20:10;17.60;95.00
10143;DHT22;5112;54.088;13.446;2023-05-10T20:30:13;17.70;94.60
10143;DHT22;5112;54.088;13.446;2023-05-10T20:40:15;17.70;94.30
10143;DHT22;5112;54.088;13.446;2023-05-10T20:50:18;17.70;94.30
10143;DHT22;5112;54.088;13.446;2023-05-10T21:00:20;17.40;94.50
10143;DHT22;5112;54.088;13.446;2023-05-10T21:10:24;17.30;95.00
10143;DHT22;5112;54.088;13.446;2023-05-10T21:20:28;17.20;95.20
10143;DHT22;5112;54.088;13.446;2023-05-10T21:30:31;17.10;95.40
10143;DHT22;5112;54.088;13.446;2023-05-10T21:40:33;17.00;95.70
10143;DHT22;5112;54.088;13.446;2023-05-10T21:50:36;16.90;96.20
10143;DHT22;5112;54.088;13.446;2023-05-10T22:00:38;16.60;97.40
10143;DHT22;5112;54.088;13.446;2023-05-10T22:10:41;16.20;99.40
10143;DHT22;5112;54.088;13.446;2023-05-10T22:20:44;15.90;99.90
10143;DHT22;5112;54.088;13.446;2023-05-10T22:30:47;15.70;99.90
10143;DHT22;5112;54.088;13.446;2023-05-10T22:40:48;15.30;99.90
10143;DHT22;5112;54.088;13.446;2023-05-10T22:50:51;15.20;99.90
10143;DHT22;5112;54.088;13.446;2023-05-10T23:00:53;15.20;99.90
10143;DHT22;5112;54.088;13.446;2023-05-10T23:10:56;15.20;99.90
10143;DHT22;5112;54.088;13.446;2023-05-10T23:20:58;15.30;99.90
10143;DHT22;5112;54.088;13.446;2023-05-10T23:31:01;15.30;99.90
10143;DHT22;5112;54.088;13.446;2023-05-10T23:41:03;15.10;99.90
10143;DHT22;5112;54.088;13.446;2023-05-10T23:51:06;15.00;99.90
